sensor_id;sensor_type;location;lat;lon;timestamp;P1;durP1;ratioP1;P2;durP2;ratioP2
1887;SDS011;944;51.574;6.980;2023-12-20T00:02:45;75.53;;;24.37;;
1887;SDS011;944;51.574;6.980;2023-12-20T00:12:38;80.93;;;22.70;;
1887;SDS011;944;51.574;6.980;2023-12-20T00:18:52;74.13;;;20.80;;
1887;SDS011;944;51.574;6.980;2023-12-20T00:21:39;62.77;;;21.73;;
1887;SDS011;944;51.574;6.980;2023-12-20T00:27:32;63.60;;;19.40;;
1887;SDS011;944;51.574;6.980;2023-12-20T00:30:02;68.37;;;21.00;;
1887;SDS011;944;51.574;6.980;2023-12-20T00:32:56;74.50;;;20.00;;
1887;SDS011;944;51.574;6.980;2023-12-20T00:35:34;71.50;;;20.90;;
1887;SDS011;944;51.574;6.980;2023-12-20T00:44:34;83.00;;;22.37;;
1887;SDS011;944;51.574;6.980;2023-12-20T00:50:12;75.87;;;20.80;;
1887;SDS011;944;51.574;6.980;2023-12-20T00:52:45;70.33;;;21.43;;
1887;SDS011;944;51.574;6.980;2023-12-20T00:58:57;76.17;;;20.43;;
1887;SDS011;944;51.574;6.980;2023-12-20T01:01:39;65.90;;;20.60;;
1887;SDS011;944;51.574;6.980;2023-12-20T01:04:11;71.53;;;20.97;;
1887;SDS011;944;51.574;6.980;2023-12-20T10:46:46;20.63;;;5.00;;
1887;SDS011;944;51.574;6.980;2023-12-20T11:51:33;16.80;;;5.27;;
1887;SDS011;944;51.574;6.980;2023-12-20T13:50:49;24.43;;;6.60;;
1887;SDS011;944;51.574;6.980;2023-12-20T13:53:22;18.30;;;7.07;;
1887;SDS011;944;51.574;6.980;2023-12-20T14:02:13;20.47;;;7.43;;
1887;SDS011;944;51.574;6.980;2023-12-20T14:04:59;28.07;;;7.47;;
1887;SDS011;944;51.574;6.980;2023-12-20T14:08:20;23.10;;;8.60;;
1887;SDS011;944;51.574;6.980;2023-12-20T14:10:57;31.20;;;7.67;;
1887;SDS011;944;51.574;6.980;2023-12-20T14:13:26;30.30;;;8.33;;
1887;SDS011;944;51.574;6.980;2023-12-20T14:16:05;23.87;;;9.00;;
1887;SDS011;944;51.574;6.980;2023-12-20T14:18:32;35.57;;;9.57;;
1887;SDS011;944;51.574;6.980;2023-12-20T14:21:00;28.10;;;9.27;;
1887;SDS011;944;51.574;6.980;2023-12-20T14:27:12;27.17;;;7.70;;
1887;SDS011;944;51.574;6.980;2023-12-20T14:33:20;24.80;;;8.10;;
1887;SDS011;944;51.574;6.980;2023-12-20T14:36:06;28.07;;;10.60;;
1887;SDS011;944;51.574;6.980;2023-12-20T14:38:35;26.30;;;7.73;;
1887;SDS011;944;51.574;6.980;2023-12-20T14:41:08;23.60;;;7.87;;
1887;SDS011;944;51.574;6.980;2023-12-20T14:43:37;25.97;;;8.00;;
1887;SDS011;944;51.574;6.980;2023-12-20T14:46:06;21.20;;;7.90;;
1887;SDS011;944;51.574;6.980;2023-12-20T14:48:41;28.30;;;9.10;;
1887;SDS011;944;51.574;6.980;2023-12-20T14:51:16;19.87;;;8.73;;
1887;SDS011;944;51.574;6.980;2023-12-20T14:53:51;31.13;;;8.63;;
1887;SDS011;944;51.574;6.980;2023-12-20T14:56:57;23.80;;;8.67;;
1887;SDS011;944;51.574;6.980;2023-12-20T15:03:05;30.07;;;8.70;;
1887;SDS011;944;51.574;6.980;2023-12-20T15:06:06;21.70;;;8.93;;
1887;SDS011;944;51.574;6.980;2023-12-20T15:08:31;22.83;;;9.87;;
1887;SDS011;944;51.574;6.980;2023-12-20T15:10:59;29.10;;;8.80;;
1887;SDS011;944;51.574;6.980;2023-12-20T15:13:26;28.03;;;9.10;;
1887;SDS011;944;51.574;6.980;2023-12-20T15:15:56;36.63;;;10.20;;
1887;SDS011;944;51.574;6.980;2023-12-20T15:18:39;29.43;;;9.67;;
1887;SDS011;944;51.574;6.980;2023-12-20T15:21:12;34.27;;;8.33;;
1887;SDS011;944;51.574;6.980;2023-12-20T15:24:00;36.90;;;8.60;;
1887;SDS011;944;51.574;6.980;2023-12-20T15:26:48;27.73;;;9.00;;
1887;SDS011;944;51.574;6.980;2023-12-20T15:33:22;28.43;;;9.07;;
1887;SDS011;944;51.574;6.980;2023-12-20T15:36:09;25.37;;;9.00;;
1887;SDS011;944;51.574;6.980;2023-12-20T15:50:40;23.00;;;7.93;;
1887;SDS011;944;51.574;6.980;2023-12-20T16:18:56;28.17;;;7.30;;
1887;SDS011;944;51.574;6.980;2023-12-20T16:21:26;26.73;;;8.97;;
1887;SDS011;944;51.574;6.980;2023-12-20T16:27:34;19.63;;;8.07;;
1887;SDS011;944;51.574;6.980;2023-12-20T16:30:05;25.93;;;8.50;;
1887;SDS011;944;51.574;6.980;2023-12-20T16:32:36;18.43;;;7.60;;
1887;SDS011;944;51.574;6.980;2023-12-20T16:35:09;38.53;;;10.00;;
1887;SDS011;944;51.574;6.980;2023-12-20T16:37:36;26.20;;;8.40;;
1887;SDS011;944;51.574;6.980;2023-12-20T16:40:10;22.00;;;8.50;;
1887;SDS011;944;51.574;6.980;2023-12-20T16:42:53;23.90;;;9.03;;
1887;SDS011;944;51.574;6.980;2023-12-20T16:50:57;26.77;;;12.47;;
1887;SDS011;944;51.574;6.980;2023-12-20T16:53:28;30.90;;;13.70;;
